createdAt,value
2022-12-31T00:02:09.619Z,100220.59
2022-12-31T00:04:37.872Z,100231.50
2022-12-31T00:07:05.883Z,100231.81
2022-12-31T00:09:34.044Z,100222.25
2022-12-31T00:12:03.350Z,100232.91
2022-12-31T00:14:31.582Z,100241.38
2022-12-31T00:16:59.558Z,100229.16
2022-12-31T00:19:27.775Z,100230.75
2022-12-31T00:21:55.699Z,100231.78
2022-12-31T00:24:23.891Z,100220.66
2022-12-31T00:26:51.803Z,100228.63
2022-12-31T00:29:21.283Z,100235.78
2022-12-31T00:31:49.254Z,100229.94
2022-12-31T00:34:17.431Z,100234.47
2022-12-31T00:36:46.050Z,100242.44
2022-12-31T00:39:14.367Z,100238.16
2022-12-31T00:41:43.901Z,100242.44
2022-12-31T00:44:12.951Z,100240.84
2022-12-31T00:49:10.368Z,100239.78
2022-12-31T00:51:38.351Z,100239.78
2022-12-31T00:54:06.726Z,100240.59
2022-12-31T00:56:34.631Z,100242.97
2022-12-31T00:59:02.842Z,100250.41
2022-12-31T01:01:32.493Z,100253.63
2022-12-31T01:04:04.607Z,100258.41
2022-12-31T01:06:32.667Z,100262.66
2022-12-31T01:09:01.110Z,100257.88
2022-12-31T01:11:29.947Z,100266.91
2022-12-31T01:14:00.181Z,100270.63
2022-12-31T01:16:31.824Z,100272.22
2022-12-31T01:19:02.605Z,100279.16
2022-12-31T01:21:31.245Z,100275.47
2022-12-31T01:23:59.500Z,100280.53
2022-12-31T01:26:28.232Z,100278.13
2022-12-31T01:28:56.451Z,100285.56
2022-12-31T01:31:25.250Z,100285.84
2022-12-31T01:33:53.791Z,100283.47
2022-12-31T01:36:26.340Z,100303.41
2022-12-31T01:38:55.169Z,100298.88
2022-12-31T01:41:25.275Z,100300.47
2022-12-31T01:43:55.541Z,100306.31
2022-12-31T01:46:28.351Z,100299.38
2022-12-31T01:48:59.091Z,100300.19
2022-12-31T01:51:30.812Z,100303.13
2022-12-31T01:54:00.182Z,100314.81
2022-12-31T01:56:28.174Z,100318.56
2022-12-31T01:58:57.604Z,100297.25
2022-12-31T02:01:27.746Z,100312.13
2022-12-31T02:03:57.712Z,100310.28
2022-12-31T02:06:30.364Z,100309.75
2022-12-31T02:08:59.012Z,100328.38
2022-12-31T02:11:29.064Z,100307.88
2022-12-31T02:14:00.353Z,100306.25
2022-12-31T02:16:35.600Z,100316.91
2022-12-31T02:19:18.354Z,100304.13
2022-12-31T02:21:55.003Z,100305.16
2022-12-31T02:25:00.632Z,100292.09
2022-12-31T02:27:39.106Z,100312.09
2022-12-31T02:30:11.739Z,100293.97
2022-12-31T02:32:51.793Z,100285.47
2022-12-31T02:35:23.373Z,100302.47
2022-12-31T02:37:54.146Z,100301.44
2022-12-31T02:40:23.510Z,100310.25
2022-12-31T02:42:55.370Z,100314.78
2022-12-31T02:45:29.915Z,100324.59
2022-12-31T02:48:08.024Z,100308.31
2022-12-31T02:50:41.949Z,100314.47
2022-12-31T02:53:19.957Z,100325.66
2022-12-31T02:55:54.129Z,100309.91
2022-12-31T02:58:46.019Z,100327.00
2022-12-31T03:01:35.703Z,100334.97
2022-12-31T03:04:25.733Z,100339.19
2022-12-31T03:06:54.469Z,100331.72
2022-12-31T03:09:22.528Z,100325.84
2022-12-31T03:12:08.221Z,100336.50
2022-12-31T03:14:36.130Z,100337.31
2022-12-31T03:17:05.694Z,100342.94
2022-12-31T03:19:51.061Z,100340.25
2022-12-31T03:22:28.500Z,100329.63
2022-12-31T03:25:16.928Z,100337.59
2022-12-31T03:27:46.871Z,100331.72
2022-12-31T03:30:15.836Z,100339.19
2022-12-31T03:32:46.697Z,100339.19
2022-12-31T03:35:16.728Z,100333.84
2022-12-31T03:37:44.979Z,100321.88
2022-12-31T03:40:14.560Z,100320.53
2022-12-31T03:42:42.777Z,100322.16
2022-12-31T03:45:12.230Z,100322.63
2022-12-31T03:47:40.435Z,100323.16
2022-12-31T03:50:12.185Z,100318.91
2022-12-31T03:52:40.575Z,100324.25
2022-12-31T03:55:10.155Z,100321.31
2022-12-31T03:57:38.454Z,100320.53
2022-12-31T04:00:08.137Z,100320.25
2022-12-31T04:02:36.481Z,100325.88
2022-12-31T04:05:04.883Z,100318.97
2022-12-31T04:07:34.504Z,100324.84
2022-12-31T04:10:02.851Z,100329.63
2022-12-31T04:12:31.028Z,100335.50
2022-12-31T04:14:59.335Z,100323.75
2022-12-31T04:17:27.833Z,100330.66
2022-12-31T04:19:55.786Z,100329.06
2022-12-31T04:22:23.992Z,100327.47
2022-12-31T04:24:53.305Z,100332.81
2022-12-31T04:27:21.504Z,100334.41
2022-12-31T04:29:49.403Z,100339.19
2022-12-31T04:32:17.216Z,100348.81
2022-12-31T04:34:45.415Z,100352.78
2022-12-31T04:37:13.401Z,100348.50
2022-12-31T04:39:41.572Z,100352.50
2022-12-31T04:42:10.939Z,100354.06
2022-12-31T04:44:39.039Z,100356.53
2022-12-31T04:47:06.950Z,100356.75
2022-12-31T04:49:35.133Z,100358.38
2022-12-31T04:52:08.830Z,100351.97
2022-12-31T04:54:37.014Z,100355.44
2022-12-31T04:57:06.312Z,100347.41
2022-12-31T04:59:35.802Z,100346.34
2022-12-31T05:02:03.950Z,100348.25
2022-12-31T05:04:32.446Z,100351.69
2022-12-31T05:07:00.432Z,100359.94
2022-12-31T05:09:28.638Z,100359.66
2022-12-31T05:11:56.629Z,100376.19
2022-12-31T05:14:24.879Z,100371.41
2022-12-31T05:16:54.540Z,100380.16
2022-12-31T05:19:22.831Z,100396.16
2022-12-31T05:22:04.691Z,100390.81
2022-12-31T05:24:33.169Z,100397.22
2022-12-31T05:27:01.051Z,100381.22
2022-12-31T05:29:29.301Z,100382.53
2022-12-31T05:31:58.560Z,100367.59
2022-12-31T05:34:26.702Z,100373.19
2022-12-31T05:36:54.599Z,100383.31
2022-12-31T05:39:22.772Z,100390.22
2022-12-31T05:41:50.652Z,100380.09
2022-12-31T05:44:18.986Z,100386.47
2022-12-31T05:46:47.026Z,100398.16
2022-12-31T05:49:16.936Z,100400.28
2022-12-31T05:51:44.893Z,100397.63
2022-12-31T05:54:13.116Z,100411.22
2022-12-31T05:56:41.237Z,100412.78
2022-12-31T05:59:09.362Z,100406.91
2022-12-31T06:01:37.262Z,100418.34
2022-12-31T06:04:05.996Z,100424.19
2022-12-31T06:06:35.297Z,100415.41
2022-12-31T06:09:03.623Z,100418.34
2022-12-31T06:11:31.609Z,100421.03
2022-12-31T06:13:59.806Z,100426.91
2022-12-31T06:16:27.994Z,100427.44
2022-12-31T06:18:56.314Z,100422.84
2022-12-31T06:21:24.214Z,100437.00
2022-12-31T06:23:53.702Z,100434.31
2022-12-31T06:26:21.960Z,100428.97
2022-12-31T06:28:50.177Z,100439.66
2022-12-31T06:31:18.127Z,100434.31
2022-12-31T06:33:46.843Z,100422.84
2022-12-31T06:36:16.518Z,100434.88
2022-12-31T06:38:45.474Z,100435.66
2022-12-31T06:41:16.281Z,100425.00
2022-12-31T06:43:44.495Z,100428.97
2022-12-31T06:46:15.795Z,100424.94
2022-12-31T06:48:44.903Z,100427.81
2022-12-31T06:51:17.251Z,100428.88
2022-12-31T06:53:46.333Z,100428.06
2022-12-31T06:56:18.408Z,100424.53
2022-12-31T06:58:47.260Z,100424.78
2022-12-31T07:01:30.122Z,100433.56
2022-12-31T07:04:02.388Z,100424.50
2022-12-31T07:06:34.589Z,100424.56
2022-12-31T07:09:08.226Z,100422.16
2022-12-31T07:11:43.124Z,100426.22
2022-12-31T07:14:21.898Z,100438.03
2022-12-31T07:16:57.501Z,100428.19
2022-12-31T07:19:34.266Z,100427.97
2022-12-31T07:22:03.840Z,100419.97
2022-12-31T07:24:32.484Z,100429.03
2022-12-31T07:27:19.375Z,100432.78
2022-12-31T07:30:00.250Z,100453.03
2022-12-31T07:32:41.499Z,100448.25
2022-12-31T07:35:13.588Z,100451.44
2022-12-31T07:37:46.947Z,100461.06
2022-12-31T07:40:18.898Z,100453.06
2022-12-31T07:43:01.771Z,100448.31
2022-12-31T07:45:34.572Z,100440.34
2022-12-31T07:48:03.282Z,100460.88
2022-12-31T07:50:32.216Z,100477.63
2022-12-31T07:53:00.618Z,100483.47
2022-12-31T07:55:29.320Z,100482.38
2022-12-31T07:58:03.542Z,100474.41
2022-12-31T08:00:32.218Z,100473.84
2022-12-31T08:03:11.433Z,100470.44
2022-12-31T08:05:45.393Z,100468.06
2022-12-31T08:08:23.618Z,100503.25
2022-12-31T08:11:00.959Z,100494.44
2022-12-31T08:13:30.573Z,100492.03
2022-12-31T08:15:59.086Z,100512.84
2022-12-31T08:18:27.517Z,100513.88
2022-12-31T08:21:00.370Z,100517.06
2022-12-31T08:23:33.792Z,100509.09
2022-12-31T08:26:13.861Z,100508.53
2022-12-31T08:28:55.491Z,100512.84
2022-12-31T08:31:26.991Z,100526.94
2022-12-31T08:34:03.872Z,100512.28
2022-12-31T08:36:41.230Z,100518.16
2022-12-31T08:39:17.303Z,100517.63
2022-12-31T08:41:46.920Z,100522.13
2022-12-31T08:44:23.336Z,100527.19
2022-12-31T08:46:58.171Z,100529.88
2022-12-31T08:49:27.510Z,100520.78
2022-12-31T08:51:56.391Z,100529.84
2022-12-31T08:54:25.005Z,100529.81
2022-12-31T08:57:06.340Z,100526.06
2022-12-31T08:59:40.594Z,100519.13
2022-12-31T09:02:27.562Z,100529.78
2022-12-31T09:05:01.257Z,100541.03
2022-12-31T09:07:35.308Z,100530.91
2022-12-31T09:10:10.398Z,100536.25
2022-12-31T09:12:42.615Z,100538.38
2022-12-31T09:15:16.423Z,100541.59
2022-12-31T09:17:46.132Z,100538.88
2022-12-31T09:20:17.220Z,100549.00
2022-12-31T09:22:45.767Z,100556.22
2022-12-31T09:25:15.892Z,100561.28
2022-12-31T09:27:47.519Z,100550.06
2022-12-31T09:30:17.682Z,100559.16
2022-12-31T09:32:56.850Z,100561.81
2022-12-31T09:35:35.425Z,100565.00
2022-12-31T09:38:11.272Z,100555.91
2022-12-31T09:41:14.374Z,100563.09
2022-12-31T09:44:17.916Z,100558.81
2022-12-31T09:47:33.060Z,100555.03
2022-12-31T09:50:28.083Z,100558.50
2022-12-31T09:53:12.356Z,100553.63
2022-12-31T09:55:45.823Z,100551.50
2022-12-31T09:58:24.712Z,100545.06
2022-12-31T10:00:54.532Z,100549.84
2022-12-31T10:03:41.844Z,100551.69
2022-12-31T10:06:21.215Z,100550.84
2022-12-31T10:09:04.015Z,100554.81
2022-12-31T10:11:44.524Z,100539.00
2022-12-31T10:14:26.969Z,100534.72
2022-12-31T10:17:02.345Z,100536.06
2022-12-31T10:19:52.832Z,100526.16
2022-12-31T10:22:40.961Z,100529.84
2022-12-31T10:25:39.394Z,100537.84
2022-12-31T10:28:15.821Z,100541.50
2022-12-31T10:30:50.168Z,100548.81
2022-12-31T10:33:26.606Z,100537.50
2022-12-31T10:36:00.707Z,100530.44
2022-12-31T10:38:34.937Z,100531.97
2022-12-31T10:41:48.655Z,100539.03
2022-12-31T10:44:49.893Z,100528.97
2022-12-31T10:47:43.220Z,100528.88
2022-12-31T10:50:26.641Z,100520.72
2022-12-31T10:53:22.753Z,100510.94
2022-12-31T10:56:23.513Z,100514.59
2022-12-31T10:59:08.458Z,100512.25
2022-12-31T11:01:46.045Z,100511.88
2022-12-31T11:04:53.168Z,100518.97
2022-12-31T11:07:48.578Z,100518.03
2022-12-31T11:10:49.800Z,100516.84
2022-12-31T11:14:03.177Z,100515.75
2022-12-31T11:16:42.466Z,100514.72
2022-12-31T11:19:17.779Z,100507.91
2022-12-31T11:21:58.403Z,100520.94
2022-12-31T11:24:39.619Z,100529.31
2022-12-31T11:27:18.555Z,100526.97
2022-12-31T11:29:58.004Z,100522.75
2022-12-31T11:32:37.201Z,100509.94
2022-12-31T11:35:16.605Z,100515.63
2022-12-31T11:37:48.040Z,100509.34
2022-12-31T11:40:35.345Z,100510.16
2022-12-31T11:43:12.598Z,100494.13
2022-12-31T11:45:53.789Z,100490.59
2022-12-31T11:48:32.660Z,100489.63
2022-12-31T11:51:15.264Z,100483.72
2022-12-31T11:54:08.313Z,100492.88
2022-12-31T11:56:38.851Z,100487.25
2022-12-31T11:59:18.653Z,100477.25
2022-12-31T12:01:53.854Z,100477.84
2022-12-31T12:04:21.862Z,100471.84
2022-12-31T12:06:50.020Z,100461.69
2022-12-31T12:09:23.465Z,100463.91
2022-12-31T12:11:59.964Z,100453.13
2022-12-31T12:14:35.238Z,100459.38
2022-12-31T12:17:05.720Z,100454.25
2022-12-31T12:19:35.686Z,100472.75
2022-12-31T12:22:12.043Z,100476.31
2022-12-31T12:24:40.559Z,100477.50
2022-12-31T12:27:21.867Z,100472.13
2022-12-31T12:29:51.512Z,100476.59
2022-12-31T12:32:21.052Z,100468.06
2022-12-31T12:34:50.142Z,100471.31
2022-12-31T12:37:30.059Z,100470.88
2022-12-31T12:39:59.236Z,100475.41
2022-12-31T12:42:27.769Z,100476.56
2022-12-31T12:45:05.134Z,100474.25
2022-12-31T12:47:34.083Z,100470.00
2022-12-31T12:50:02.117Z,100461.19
2022-12-31T12:52:41.329Z,100455.19
2022-12-31T12:55:18.424Z,100460.94
2022-12-31T12:57:50.535Z,100454.53
2022-12-31T13:00:21.634Z,100450.63
2022-12-31T13:03:19.201Z,100440.91
2022-12-31T13:06:06.472Z,100445.59
2022-12-31T13:08:48.190Z,100446.84
2022-12-31T13:11:26.820Z,100444.63
2022-12-31T13:14:00.262Z,100454.38
2022-12-31T13:16:35.971Z,100453.06
2022-12-31T13:19:10.007Z,100460.16
2022-12-31T13:21:42.827Z,100450.47
2022-12-31T13:24:19.651Z,100454.03
2022-12-31T13:26:53.446Z,100437.97
2022-12-31T13:29:25.257Z,100438.81
2022-12-31T13:31:55.877Z,100445.06
2022-12-31T13:34:29.002Z,100431.25
2022-12-31T13:37:00.349Z,100426.03
2022-12-31T13:39:30.548Z,100446.78
2022-12-31T13:42:02.218Z,100437.97
2022-12-31T13:44:32.488Z,100436.09
2022-12-31T13:47:05.559Z,100441.09
2022-12-31T13:49:39.294Z,100443.78
2022-12-31T13:52:19.855Z,100439.13
2022-12-31T13:54:55.595Z,100438.16
2022-12-31T13:57:33.895Z,100434.75
2022-12-31T14:00:05.722Z,100432.88
2022-12-31T14:02:45.363Z,100420.28
2022-12-31T14:05:18.549Z,100424.03
2022-12-31T14:07:50.254Z,100410.72
2022-12-31T14:10:21.747Z,100417.69
2022-12-31T14:12:54.999Z,100421.78
2022-12-31T14:15:25.268Z,100415.91
2022-12-31T14:18:01.515Z,100414.31
2022-12-31T14:20:35.272Z,100421.28
2022-12-31T14:23:07.812Z,100421.38
2022-12-31T14:25:38.664Z,100419.88
2022-12-31T14:28:08.235Z,100415.00
2022-12-31T14:30:38.972Z,100423.25
2022-12-31T14:33:24.234Z,100434.69
2022-12-31T14:36:10.958Z,100436.97
2022-12-31T14:38:48.570Z,100440.16
2022-12-31T14:41:27.571Z,100447.84
2022-12-31T14:44:01.881Z,100441.69
2022-12-31T14:46:36.955Z,100446.44
2022-12-31T14:49:23.222Z,100454.16
2022-12-31T14:51:51.578Z,100451.06
2022-12-31T14:54:29.025Z,100449.34
2022-12-31T14:56:57.430Z,100452.91
2022-12-31T14:59:27.715Z,100449.56
2022-12-31T15:01:56.724Z,100441.03
2022-12-31T15:04:43.479Z,100439.81
2022-12-31T15:07:17.394Z,100429.47
2022-12-31T15:09:52.415Z,100427.63
2022-12-31T15:12:28.821Z,100442.47
2022-12-31T15:15:33.189Z,100444.06
2022-12-31T15:18:12.152Z,100437.25
2022-12-31T15:20:50.588Z,100446.97
2022-12-31T15:23:22.458Z,100444.34
2022-12-31T15:25:54.138Z,100451.41
2022-12-31T15:28:30.587Z,100434.94
2022-12-31T15:31:03.133Z,100444.03
2022-12-31T15:33:33.978Z,100436.50
2022-12-31T15:36:14.781Z,100456.88
2022-12-31T15:38:43.319Z,100462.81
2022-12-31T15:41:27.625Z,100462.81
2022-12-31T15:43:58.964Z,100456.22
2022-12-31T15:46:30.088Z,100465.13
2022-12-31T15:49:05.146Z,100465.69
2022-12-31T15:51:44.397Z,100473.19
2022-12-31T15:54:23.751Z,100483.91
2022-12-31T15:56:53.178Z,100483.44
2022-12-31T15:59:22.701Z,100487.22
2022-12-31T16:01:51.029Z,100477.59
2022-12-31T16:04:21.856Z,100484.06
2022-12-31T16:06:51.529Z,100490.47
2022-12-31T16:09:22.753Z,100487.84
2022-12-31T16:11:51.830Z,100492.38
2022-12-31T16:14:23.702Z,100499.63
2022-12-31T16:16:54.027Z,100490.03
2022-12-31T16:19:32.817Z,100499.19
2022-12-31T16:22:08.077Z,100493.31
2022-12-31T16:24:48.903Z,100494.41
2022-12-31T16:27:25.935Z,100501.34
2022-12-31T16:29:59.602Z,100504.63
2022-12-31T16:32:27.804Z,100516.34
2022-12-31T16:34:55.905Z,100513.72
2022-12-31T16:37:25.171Z,100511.56
2022-12-31T16:40:18.895Z,100516.13
2022-12-31T16:42:47.831Z,100507.88
2022-12-31T16:45:30.081Z,100517.22
2022-12-31T16:47:58.576Z,100525.53
2022-12-31T16:50:26.854Z,100525.00
2022-12-31T16:53:00.945Z,100516.78
2022-12-31T16:55:30.469Z,100516.97
2022-12-31T16:58:00.941Z,100513.25
2022-12-31T17:00:29.309Z,100516.22
2022-12-31T17:03:05.021Z,100512.69
2022-12-31T17:05:35.117Z,100517.56
2022-12-31T17:08:24.731Z,100513.00
2022-12-31T17:10:52.966Z,100508.47
2022-12-31T17:13:30.806Z,100509.50
2022-12-31T17:15:59.744Z,100514.34
2022-12-31T17:18:30.185Z,100505.84
2022-12-31T17:21:06.854Z,100502.63
2022-12-31T17:23:37.900Z,100506.41
2022-12-31T17:26:10.724Z,100499.41
2022-12-31T17:28:43.376Z,100501.06
2022-12-31T17:31:30.867Z,100506.94
2022-12-31T17:34:07.651Z,100506.94
2022-12-31T17:36:36.034Z,100500.81
2022-12-31T17:39:18.516Z,100502.16
2022-12-31T17:41:47.759Z,100511.50
2022-12-31T17:44:18.863Z,100509.09
2022-12-31T17:46:47.252Z,100512.84
2022-12-31T17:49:15.237Z,100510.19
2022-12-31T17:51:47.537Z,100508.06
2022-12-31T17:54:18.257Z,100521.22
2022-12-31T17:56:47.021Z,100515.63
2022-12-31T17:59:17.095Z,100522.03
2022-12-31T18:01:45.761Z,100518.88
2022-12-31T18:04:14.699Z,100524.22
2022-12-31T18:06:43.273Z,100532.75
2022-12-31T18:09:11.262Z,100536.03
2022-12-31T18:11:41.387Z,100533.06
2022-12-31T18:14:09.358Z,100529.66
2022-12-31T18:16:37.908Z,100524.84
2022-12-31T18:19:23.465Z,100530.72
2022-12-31T18:22:00.670Z,100548.91
2022-12-31T18:24:28.616Z,100550.25
2022-12-31T18:26:58.135Z,100548.91
2022-12-31T18:29:26.150Z,100543.63
2022-12-31T18:31:54.484Z,100559.34
2022-12-31T18:34:22.457Z,100550.53
2022-12-31T18:36:50.585Z,100555.34
2022-12-31T18:39:18.482Z,100560.16
2022-12-31T18:41:49.367Z,100560.13
2022-12-31T18:44:18.778Z,100559.09
2022-12-31T18:46:46.967Z,100562.22
2022-12-31T18:49:14.882Z,100563.28
2022-12-31T18:51:43.088Z,100562.72
2022-12-31T18:54:11.928Z,100569.13
2022-12-31T18:56:46.499Z,100571.53
2022-12-31T18:59:15.703Z,100587.59
2022-12-31T19:01:45.356Z,100586.25
2022-12-31T19:04:14.778Z,100577.22
2022-12-31T19:06:43.786Z,100570.53
2022-12-31T19:09:30.635Z,100581.47
2022-12-31T19:12:00.920Z,100574.56
2022-12-31T19:14:29.017Z,100585.25
2022-12-31T19:19:26.641Z,100574.03
2022-12-31T19:21:55.047Z,100579.38
2022-12-31T19:24:26.423Z,100580.72
2022-12-31T19:26:55.005Z,100575.13
2022-12-31T19:29:24.566Z,100571.94
2022-12-31T19:31:53.061Z,100571.94
2022-12-31T19:34:22.509Z,100577.28
2022-12-31T19:36:50.684Z,100573.03
2022-12-31T19:39:20.412Z,100566.63
2022-12-31T19:41:56.567Z,100578.13
2022-12-31T19:44:26.956Z,100571.41
2022-12-31T19:46:55.256Z,100581.56
2022-12-31T19:49:24.551Z,100570.09
2022-12-31T19:51:52.772Z,100572.22
2022-12-31T19:54:20.741Z,100579.41
2022-12-31T19:56:48.963Z,100576.72
2022-12-31T19:59:16.859Z,100578.63
2022-12-31T20:01:45.222Z,100578.34
2022-12-31T20:04:13.276Z,100571.69
2022-12-31T20:06:42.764Z,100577.28
2022-12-31T20:09:12.125Z,100572.25
2022-12-31T20:11:40.282Z,100570.38
2022-12-31T20:14:08.292Z,100574.16
2022-12-31T20:16:36.603Z,100576.84
2022-12-31T20:19:05.927Z,100572.53
2022-12-31T20:21:34.275Z,100578.44
2022-12-31T20:24:03.581Z,100581.94
2022-12-31T20:26:31.844Z,100573.09
2022-12-31T20:28:59.737Z,100576.84
2022-12-31T20:31:27.904Z,100575.50
2022-12-31T20:33:56.119Z,100579.25
2022-12-31T20:36:25.737Z,100583.78
2022-12-31T20:38:53.783Z,100587.53
2022-12-31T20:41:23.862Z,100585.69
2022-12-31T20:43:52.211Z,100589.69
2022-12-31T20:46:21.928Z,100587.56
2022-12-31T20:48:52.067Z,100586.75
2022-12-31T20:51:21.757Z,100591.53
2022-12-31T20:53:51.562Z,100579.00
2022-12-31T20:56:19.866Z,100582.75
2022-12-31T20:58:49.326Z,100585.41
2022-12-31T21:01:18.186Z,100585.69
2022-12-31T21:04:04.766Z,100588.66
2022-12-31T21:06:34.762Z,100588.66
2022-12-31T21:09:05.225Z,100584.91
2022-12-31T21:11:51.051Z,100590.78
2022-12-31T21:14:20.339Z,100592.91
2022-12-31T21:16:48.801Z,100593.72
2022-12-31T21:19:16.744Z,100594.81
2022-12-31T21:21:45.052Z,100591.34
2022-12-31T21:24:17.479Z,100586.53
2022-12-31T21:26:51.239Z,100588.66
2022-12-31T21:29:20.547Z,100595.06
2022-12-31T21:31:48.735Z,100591.59
2022-12-31T21:34:16.735Z,100591.88
2022-12-31T21:36:45.024Z,100595.59
2022-12-31T21:39:12.983Z,100600.16
2022-12-31T21:41:53.306Z,100605.22
2022-12-31T21:44:24.510Z,100594.53
2022-12-31T21:47:33.325Z,100600.91
2022-12-31T21:49:43.719Z,100606.78
2022-12-31T21:52:26.936Z,100600.41
2022-12-31T21:55:12.894Z,100604.13
2022-12-31T21:58:15.671Z,100601.47
2022-12-31T22:00:48.533Z,100609.47
2022-12-31T22:03:27.425Z,100610.53
2022-12-31T22:05:57.987Z,100611.63
2022-12-31T22:08:26.630Z,100609.47
2022-12-31T22:10:54.975Z,100616.13
2022-12-31T22:13:24.139Z,100613.19
2022-12-31T22:16:01.801Z,100611.63
2022-12-31T22:18:35.320Z,100616.94
2022-12-31T22:21:05.388Z,100618.53
2022-12-31T22:23:34.999Z,100623.56
2022-12-31T22:26:03.484Z,100632.88
2022-12-31T22:28:40.151Z,100638.47
2022-12-31T22:31:10.644Z,100629.16
2022-12-31T22:33:38.850Z,100634.47
2022-12-31T22:36:09.051Z,100634.22
2022-12-31T22:38:37.488Z,100641.13
2022-12-31T22:41:07.603Z,100650.97
2022-12-31T22:43:37.195Z,100651.50
2022-12-31T22:46:11.936Z,100649.91
2022-12-31T22:48:40.933Z,100648.31
2022-12-31T22:51:10.162Z,100655.22
2022-12-31T22:53:39.618Z,100652.00
2022-12-31T22:56:08.176Z,100650.97
2022-12-31T22:58:38.010Z,100652.53
2022-12-31T23:01:07.014Z,100654.13
2022-12-31T23:03:36.671Z,100652.56
2022-12-31T23:06:04.949Z,100658.41
2022-12-31T23:08:33.626Z,100666.41
2022-12-31T23:11:00.736Z,100665.31
2022-12-31T23:13:50.545Z,100667.97
2022-12-31T23:16:37.489Z,100668.22
2022-12-31T23:19:25.335Z,100667.16
2022-12-31T23:22:10.936Z,100661.00
2022-12-31T23:24:39.623Z,100663.59
2022-12-31T23:27:08.216Z,100661.50
2022-12-31T23:29:45.523Z,100659.34
2022-12-31T23:32:15.040Z,100664.41
2022-12-31T23:34:45.462Z,100664.13
2022-12-31T23:37:14.133Z,100664.69
2022-12-31T23:39:42.697Z,100656.66
2022-12-31T23:42:10.609Z,100661.47
2022-12-31T23:44:38.907Z,100668.91
2022-12-31T23:47:06.951Z,100673.50
2022-12-31T23:49:35.191Z,100662.63
2022-12-31T23:52:04.685Z,100667.41
2022-12-31T23:54:32.885Z,100666.34
2022-12-31T23:57:00.904Z,100665.84
2022-12-31T23:59:29.184Z,100668.78
